Time;durP1;ratioP1;P1;durP2;ratioP2;P2;SDS_P1;SDS_P2;PMS_P1;PMS_P2;Temp;Humidity;BMP_temperature;BMP_pressure;BME280_temperature;BME280_humidity;BME280_pressure;Samples;Min_cycle;Max_cycle;Signal;HPM_P1;HPM_P2
2023/07/29 00:00:53;;;;;;;;;;;;;;;27.37;39.09;100526.97;5095517;28;1178;-26
2023/07/29 00:03:18;;;;;;;;;;;;;;;27.45;38.95;100519.75;5081973;28;1910;-22
2023/07/29 00:05:44;;;;;;;;;;;;;;;27.55;38.40;100524.84;5095589;28;1162;-21
2023/07/29 00:08:10;;;;;;;;;;;;;;;27.61;38.85;100521.41;5095381;28;1078;-24
2023/07/29 00:10:36;;;;;;;;;;;;;;;27.55;38.66;100527.56;5098930;28;1109;-24
2023/07/29 00:13:01;;;;;;;;;;;;;;;27.63;38.39;100519.34;5099451;28;1061;-23
2023/07/29 00:15:27;;;;;;;;;;;;;;;27.71;38.39;100516.53;5098595;28;1089;-24
2023/07/29 00:17:52;;;;;;;;;;;;;;;27.75;38.09;100511.59;5099419;28;1007;-27
2023/07/29 00:20:18;;;;;;;;;;;;;;;27.72;38.22;100515.53;5098605;28;1023;-26
2023/07/29 00:22:43;;;;;;;;;;;;;;;27.71;38.16;100513.84;5098853;28;1906;-24
2023/07/29 00:25:09;;;;;;;;;;;;;;;27.60;38.57;100512.47;5099071;28;1176;-23
2023/07/29 00:27:35;;;;;;;;;;;;;;;27.63;38.06;100514.78;5098875;28;1026;-22
2023/07/29 00:30:00;;;;;;;;;;;;;;;27.61;38.34;100513.31;5098305;28;1082;-25
2023/07/29 00:32:27;;;;;;;;;;;;;;;27.66;38.29;100516.25;5080660;28;1154;-25
2023/07/29 00:34:52;;;;;;;;;;;;;;;27.65;38.48;100506.47;5099269;28;1182;-24
2023/07/29 00:37:18;;;;;;;;;;;;;;;27.68;37.90;100505.25;5080357;28;1087;-22
2023/07/29 00:39:45;;;;;;;;;;;;;;;27.63;38.22;100505.81;5080684;28;1209;-23
2023/07/29 00:42:10;;;;;;;;;;;;;;;27.64;37.48;100494.00;5080718;28;1977;-23
2023/07/29 00:44:36;;;;;;;;;;;;;;;27.67;37.42;100488.22;5080137;28;1212;-24
2023/07/29 00:47:02;;;;;;;;;;;;;;;27.64;38.33;100480.50;5098781;28;1151;-25
2023/07/29 00:49:28;;;;;;;;;;;;;;;27.68;38.20;100489.91;5098459;28;1096;-23
2023/07/29 00:51:53;;;;;;;;;;;;;;;27.65;38.07;100492.97;5079994;28;1063;-23
2023/07/29 00:54:19;;;;;;;;;;;;;;;27.65;38.24;100494.81;5098418;28;1225;-25
2023/07/29 00:56:44;;;;;;;;;;;;;;;27.50;38.52;100490.31;5098496;28;1149;-25
2023/07/29 00:59:11;;;;;;;;;;;;;;;27.45;38.53;100485.50;5079781;28;1220;-22
2023/07/29 01:01:37;;;;;;;;;;;;;;;27.55;38.25;100487.88;5098135;28;1166;-25
2023/07/29 01:04:02;;;;;;;;;;;;;;;27.59;38.16;100491.84;5098196;28;1914;-23
2023/07/29 01:06:37;;;;;;;;;;;;;;;27.62;38.24;100491.50;5079964;28;1521;-23
2023/07/29 01:09:04;;;;;;;;;;;;;;;27.49;38.03;100492.16;5080214;28;1167;-24
2023/07/29 01:11:45;;;;;;;;;;;;;;;27.48;38.61;100484.25;5079798;28;1131;-23
2023/07/29 01:14:14;;;;;;;;;;;;;;;27.35;38.64;100483.09;5085119;28;1205;-24
2023/07/29 01:16:41;;;;;;;;;;;;;;;27.51;38.82;100482.00;5098069;28;1122;-21
2023/07/29 01:19:07;;;;;;;;;;;;;;;27.58;38.44;100475.84;5079888;28;1201;-21
2023/07/29 01:21:33;;;;;;;;;;;;;;;27.62;38.17;100467.19;5096241;28;885;-22
2023/07/29 01:23:59;;;;;;;;;;;;;;;27.59;38.60;100469.41;5079910;28;1977;-22
2023/07/29 01:26:25;;;;;;;;;;;;;;;27.58;38.52;100470.44;5079753;28;1067;-24
2023/07/29 01:28:50;;;;;;;;;;;;;;;27.66;38.18;100464.09;5097669;28;1022;-22
2023/07/29 01:31:36;;;;;;;;;;;;;;;27.59;38.12;100464.84;5097431;28;1050;-22
2023/07/29 01:34:05;;;;;;;;;;;;;;;27.48;38.67;100466.19;5097080;28;1015;-23
2023/07/29 01:36:32;;;;;;;;;;;;;;;27.57;38.33;100463.38;5079146;28;1201;-23
2023/07/29 01:38:57;;;;;;;;;;;;;;;27.47;38.58;100467.22;5079709;28;1178;-23
2023/07/29 01:41:23;;;;;;;;;;;;;;;27.49;38.75;100462.44;5079286;28;1063;-23
2023/07/29 01:43:49;;;;;;;;;;;;;;;27.52;38.37;100469.34;5079381;28;1910;-22
2023/07/29 01:46:14;;;;;;;;;;;;;;;27.57;38.18;100472.31;5097581;28;896;-23
2023/07/29 01:48:40;;;;;;;;;;;;;;;27.47;38.41;100472.63;5079295;28;1134;-22
2023/07/29 01:51:06;;;;;;;;;;;;;;;27.38;38.35;100469.22;5078416;28;1111;-24
2023/07/29 01:53:31;;;;;;;;;;;;;;;27.46;38.14;100468.25;5078806;28;1067;-22
2023/07/29 01:55:57;;;;;;;;;;;;;;;27.46;38.32;100467.44;5078953;28;1383;-23
2023/07/29 01:58:23;;;;;;;;;;;;;;;27.49;38.36;100465.16;5078553;28;1167;-22
2023/07/29 02:00:49;;;;;;;;;;;;;;;27.48;37.91;100466.19;5078628;28;1113;-23
2023/07/29 02:03:14;;;;;;;;;;;;;;;27.42;38.35;100463.44;5078338;28;1909;-27
2023/07/29 02:05:41;;;;;;;;;;;;;;;27.42;37.85;100472.38;5096219;28;1129;-22
2023/07/29 02:08:07;;;;;;;;;;;;;;;27.42;38.18;100469.69;5096882;28;1094;-24
2023/07/29 02:10:32;;;;;;;;;;;;;;;27.25;38.29;100474.47;5096575;28;1022;-23
2023/07/29 02:12:58;;;;;;;;;;;;;;;27.33;38.21;100476.22;5078498;28;1173;-22
2023/07/29 02:15:24;;;;;;;;;;;;;;;27.32;38.07;100472.69;5096642;28;1082;-24
2023/07/29 02:17:50;;;;;;;;;;;;;;;27.37;37.76;100477.50;5078604;28;1111;-24
2023/07/29 02:20:15;;;;;;;;;;;;;;;27.29;38.36;100472.22;5078002;28;1317;-22
2023/07/29 02:22:41;;;;;;;;;;;;;;;27.34;38.01;100464.41;5078265;28;1910;-22
2023/07/29 02:25:07;;;;;;;;;;;;;;;27.45;38.27;100466.59;5078620;28;1127;-23
2023/07/29 02:27:33;;;;;;;;;;;;;;;27.45;37.63;100461.19;5096799;28;1205;-23
2023/07/29 02:29:59;;;;;;;;;;;;;;;27.38;37.87;100468.38;5096360;28;1233;-22
2023/07/29 02:32:24;;;;;;;;;;;;;;;27.34;38.22;100469.78;5096531;28;1045;-22
2023/07/29 02:34:50;;;;;;;;;;;;;;;27.36;38.14;100470.44;5095699;28;1077;-22
2023/07/29 02:37:16;;;;;;;;;;;;;;;27.39;38.04;100467.34;5078620;28;1146;-22
2023/07/29 02:39:42;;;;;;;;;;;;;;;27.34;38.00;100465.22;5078173;28;1942;-24
2023/07/29 02:42:07;;;;;;;;;;;;;;;27.34;37.78;100462.50;5096331;28;1902;-23
2023/07/29 02:44:33;;;;;;;;;;;;;;;27.35;38.00;100471.47;5077650;28;1228;-23
2023/07/29 02:46:58;;;;;;;;;;;;;;;27.31;38.12;100476.41;5096446;28;1117;-22
2023/07/29 02:49:24;;;;;;;;;;;;;;;27.36;37.80;100483.94;5096349;28;1086;-25
2023/07/29 02:51:50;;;;;;;;;;;;;;;27.30;38.12;100482.84;5077949;28;1227;-26
2023/07/29 02:54:15;;;;;;;;;;;;;;;27.31;38.03;100478.28;5095997;28;1031;-27
2023/07/29 02:56:41;;;;;;;;;;;;;;;27.39;38.24;100484.38;5096266;28;1177;-23
2023/07/29 02:59:07;;;;;;;;;;;;;;;27.41;37.54;100481.50;5096272;28;1002;-25
2023/07/29 03:01:32;;;;;;;;;;;;;;;27.36;37.89;100484.78;5095725;28;1462;-24
2023/07/29 03:03:58;;;;;;;;;;;;;;;27.07;38.74;100483.84;5096220;28;1914;-21
2023/07/29 03:06:23;;;;;;;;;;;;;;;25.89;41.53;100477.13;5077912;28;1110;-22
2023/07/29 03:08:49;;;;;;;;;;;;;;;25.61;42.80;100478.47;5077681;28;1238;-21
2023/07/29 03:11:15;;;;;;;;;;;;;;;25.31;43.69;100472.94;5077107;28;1244;-21
2023/07/29 03:13:40;;;;;;;;;;;;;;;25.23;43.98;100475.66;5077779;28;1328;-22
2023/07/29 03:16:06;;;;;;;;;;;;;;;25.21;43.92;100475.03;5077618;28;1332;-20
2023/07/29 03:18:32;;;;;;;;;;;;;;;25.14;43.92;100474.88;5077899;28;1360;-21
2023/07/29 03:20:57;;;;;;;;;;;;;;;25.21;43.66;100475.84;5095724;28;1312;-20
2023/07/29 03:23:23;;;;;;;;;;;;;;;25.17;43.86;100480.75;5077819;28;1913;-21
2023/07/29 03:25:51;;;;;;;;;;;;;;;25.12;43.71;100477.75;5095903;28;1149;-20
2023/07/29 03:28:16;;;;;;;;;;;;;;;25.05;43.90;100479.47;5077425;28;1948;-20
2023/07/29 03:30:42;;;;;;;;;;;;;;;25.16;44.08;100481.75;5074794;28;2456;-20
2023/07/29 03:33:08;;;;;;;;;;;;;;;25.01;44.56;100476.28;5073134;28;2000;-20
2023/07/29 03:35:33;;;;;;;;;;;;;;;25.35;44.05;100485.03;5084805;28;2047;-21
2023/07/29 03:37:59;;;;;;;;;;;;;;;25.35;43.72;100473.41;5095004;28;2142;-21
2023/07/29 03:40:24;;;;;;;;;;;;;;;25.22;44.41;100480.22;5076746;28;1836;-21
2023/07/29 03:42:50;;;;;;;;;;;;;;;25.41;43.55;100484.31;5095018;28;1976;-20
2023/07/29 03:45:15;;;;;;;;;;;;;;;25.03;44.21;100476.09;5098634;28;2065;-20
2023/07/29 03:47:41;;;;;;;;;;;;;;;24.98;44.06;100476.63;5080494;28;1257;-20
2023/07/29 03:50:07;;;;;;;;;;;;;;;24.67;44.96;100480.09;5061052;28;1488;-20
2023/07/29 03:52:33;;;;;;;;;;;;;;;25.10;43.98;100479.78;5061173;28;1144;-21
2023/07/29 03:54:58;;;;;;;;;;;;;;;25.22;43.75;100484.78;5060914;28;1407;-21
2023/07/29 03:57:24;;;;;;;;;;;;;;;25.21;43.66;100489.31;5070138;28;1176;-20
2023/07/29 03:59:50;;;;;;;;;;;;;;;25.19;43.93;100486.78;5095265;28;1125;-20
2023/07/29 04:02:15;;;;;;;;;;;;;;;25.10;43.85;100489.69;5080152;28;1910;-20
2023/07/29 04:04:44;;;;;;;;;;;;;;;25.28;43.49;100484.91;5075559;28;1424;-20
2023/07/29 04:07:09;;;;;;;;;;;;;;;25.00;44.52;100484.53;5081237;28;1232;-20
2023/07/29 04:09:35;;;;;;;;;;;;;;;25.11;44.29;100496.78;5067363;28;1299;-21
2023/07/29 04:12:00;;;;;;;;;;;;;;;25.00;44.60;100498.84;5080712;28;1206;-20
2023/07/29 04:14:26;;;;;;;;;;;;;;;24.83;44.79;100498.88;5084501;28;1845;-20
2023/07/29 04:16:52;;;;;;;;;;;;;;;24.95;45.04;100501.22;5085589;28;1011;-21
2023/07/29 04:19:17;;;;;;;;;;;;;;;25.82;42.79;100505.78;5098544;28;1081;-21
2023/07/29 04:21:43;;;;;;;;;;;;;;;26.40;41.07;100503.47;5067350;28;1191;-22
2023/07/29 04:24:09;;;;;;;;;;;;;;;26.54;40.96;100506.38;5066871;28;1976;-22
2023/07/29 04:26:34;;;;;;;;;;;;;;;26.82;40.15;100497.59;5085285;28;1151;-24
2023/07/29 04:29:00;;;;;;;;;;;;;;;27.00;39.49;100497.22;5080201;28;1108;-22
2023/07/29 04:31:25;;;;;;;;;;;;;;;27.09;39.16;100500.66;5073258;28;1022;-22
2023/07/29 04:33:51;;;;;;;;;;;;;;;27.14;39.41;100500.13;5078631;28;1035;-22
2023/07/29 04:36:16;;;;;;;;;;;;;;;27.21;39.42;100508.28;5080159;28;1030;-22
2023/07/29 04:38:44;;;;;;;;;;;;;;;27.18;39.28;100511.34;5079871;28;1193;-22
2023/07/29 04:41:10;;;;;;;;;;;;;;;27.13;39.18;100510.06;5097406;28;1201;-22
2023/07/29 04:43:36;;;;;;;;;;;;;;;27.31;38.99;100518.78;5094102;28;1984;-22
2023/07/29 04:46:02;;;;;;;;;;;;;;;27.26;39.08;100520.19;5085563;28;2101;-22
2023/07/29 04:48:27;;;;;;;;;;;;;;;27.30;39.11;100517.94;5077920;28;1059;-22
2023/07/29 04:50:53;;;;;;;;;;;;;;;27.35;39.09;100522.78;5084535;28;1237;-22
2023/07/29 04:53:18;;;;;;;;;;;;;;;27.38;38.83;100528.63;5066497;28;1031;-21
2023/07/29 04:55:45;;;;;;;;;;;;;;;27.25;39.24;100523.06;5096682;28;1217;-23
2023/07/29 04:58:10;;;;;;;;;;;;;;;27.37;38.86;100528.81;5079750;28;1165;-22
2023/07/29 05:00:36;;;;;;;;;;;;;;;27.43;38.74;100530.75;5096724;28;990;-21
2023/07/29 05:03:02;;;;;;;;;;;;;;;27.36;38.78;100532.56;5075869;28;1977;-24
2023/07/29 05:05:28;;;;;;;;;;;;;;;27.19;39.28;100531.94;5059949;28;1251;-24
2023/07/29 05:07:54;;;;;;;;;;;;;;;27.34;38.62;100523.81;5077343;28;1233;-22
2023/07/29 05:10:20;;;;;;;;;;;;;;;27.49;38.14;100531.88;5079198;28;1287;-22
2023/07/29 05:12:46;;;;;;;;;;;;;;;27.53;37.72;100533.16;5075935;28;1094;-24
2023/07/29 05:15:11;;;;;;;;;;;;;;;27.55;38.11;100524.84;5069413;28;1032;-22
2023/07/29 05:17:38;;;;;;;;;;;;;;;27.64;38.08;100529.13;5076398;28;1130;-24
2023/07/29 05:20:04;;;;;;;;;;;;;;;27.69;37.53;100529.44;5087015;28;1051;-24
2023/07/29 05:22:29;;;;;;;;;;;;;;;27.66;37.46;100528.94;5094477;28;2047;-21
2023/07/29 05:24:55;;;;;;;;;;;;;;;27.71;37.71;100532.75;5069189;28;1222;-22
2023/07/29 05:27:20;;;;;;;;;;;;;;;27.74;37.28;100528.84;5081187;28;1031;-22
2023/07/29 05:29:46;;;;;;;;;;;;;;;27.68;37.65;100529.56;5075810;28;1126;-23
2023/07/29 05:32:12;;;;;;;;;;;;;;;27.76;37.31;100529.47;5094882;28;1158;-21
2023/07/29 05:34:37;;;;;;;;;;;;;;;27.69;37.44;100536.69;5097325;28;1014;-22
2023/07/29 05:37:03;;;;;;;;;;;;;;;27.74;37.00;100531.53;5078737;28;1003;-22
2023/07/29 05:39:29;;;;;;;;;;;;;;;27.70;37.46;100528.38;5079165;28;1165;-22
2023/07/29 05:41:55;;;;;;;;;;;;;;;27.73;37.56;100529.84;5078976;28;1311;-22
2023/07/29 05:44:20;;;;;;;;;;;;;;;27.77;37.48;100531.16;5097260;28;1989;-22
2023/07/29 05:46:46;;;;;;;;;;;;;;;27.75;37.06;100527.81;5078841;28;1102;-23
2023/07/29 05:49:12;;;;;;;;;;;;;;;27.72;37.37;100522.78;5059819;28;1218;-25
2023/07/29 05:51:38;;;;;;;;;;;;;;;27.74;37.54;100532.34;5071427;28;1206;-23
2023/07/29 05:54:04;;;;;;;;;;;;;;;27.77;37.60;100525.75;5060282;28;1139;-23
2023/07/29 05:56:31;;;;;;;;;;;;;;;27.76;37.90;100526.75;5059010;28;1083;-22
2023/07/29 05:58:57;;;;;;;;;;;;;;;27.74;37.74;100526.94;5064634;28;1336;-22
2023/07/29 06:01:22;;;;;;;;;;;;;;;27.73;38.43;100530.69;5081049;28;1166;-25
2023/07/29 06:03:48;;;;;;;;;;;;;;;27.82;37.93;100522.47;5095866;28;1910;-26
2023/07/29 06:06:13;;;;;;;;;;;;;;;27.89;38.09;100523.38;5084435;28;1094;-24
2023/07/29 06:08:39;;;;;;;;;;;;;;;27.92;37.74;100522.13;5076966;28;1071;-22
2023/07/29 06:11:06;;;;;;;;;;;;;;;27.85;38.12;100525.63;5068896;28;1310;-22
2023/07/29 06:13:32;;;;;;;;;;;;;;;27.89;37.87;100515.25;5059367;28;1135;-22
2023/07/29 06:15:57;;;;;;;;;;;;;;;27.92;37.92;100525.69;5076890;28;1107;-25
2023/07/29 06:18:23;;;;;;;;;;;;;;;28.00;37.41;100524.69;5088372;28;1221;-23
2023/07/29 06:20:49;;;;;;;;;;;;;;;27.98;38.11;100526.75;5058466;28;1881;-26
2023/07/29 06:23:15;;;;;;;;;;;;;;;27.92;37.94;100524.84;5056420;28;1965;-24
2023/07/29 06:25:40;;;;;;;;;;;;;;;27.85;38.21;100519.38;5094191;28;1050;-24
2023/07/29 06:28:06;;;;;;;;;;;;;;;27.84;38.31;100532.03;5096447;28;1304;-26
2023/07/29 06:30:31;;;;;;;;;;;;;;;27.99;38.06;100521.16;5088831;28;1192;-23
2023/07/29 06:32:57;;;;;;;;;;;;;;;27.95;37.94;100530.69;5088379;28;1112;-26
2023/07/29 06:35:23;;;;;;;;;;;;;;;27.90;37.74;100525.03;5088579;28;1242;-24
2023/07/29 06:37:49;;;;;;;;;;;;;;;28.04;37.51;100522.44;5089364;28;1237;-24
2023/07/29 06:40:14;;;;;;;;;;;;;;;28.02;37.86;100517.25;5081377;28;1150;-27
2023/07/29 06:42:40;;;;;;;;;;;;;;;28.09;37.64;100522.72;5096394;28;1910;-22
2023/07/29 06:45:06;;;;;;;;;;;;;;;27.90;37.66;100516.06;5089885;28;1189;-22
2023/07/29 06:47:32;;;;;;;;;;;;;;;28.07;37.12;100517.50;5087343;28;895;-22
2023/07/29 06:49:57;;;;;;;;;;;;;;;28.04;37.07;100522.44;5082129;28;1115;-23
2023/07/29 06:52:23;;;;;;;;;;;;;;;27.93;37.16;100535.44;5084882;28;1129;-23
2023/07/29 06:54:48;;;;;;;;;;;;;;;28.15;36.47;100526.47;5080400;28;1030;-22
2023/07/29 06:57:14;;;;;;;;;;;;;;;28.19;36.73;100531.31;5085508;28;1046;-22
2023/07/29 06:59:40;;;;;;;;;;;;;;;28.18;36.85;100524.22;5071437;28;1154;-21
2023/07/29 07:02:06;;;;;;;;;;;;;;;28.22;37.13;100532.78;5095655;28;1973;-22
2023/07/29 07:04:31;;;;;;;;;;;;;;;27.98;36.51;100524.91;5082731;28;1134;-22
2023/07/29 07:06:57;;;;;;;;;;;;;;;28.09;36.66;100518.09;5085641;28;1046;-24
2023/07/29 07:09:22;;;;;;;;;;;;;;;28.26;36.34;100515.13;5080623;28;1135;-22
2023/07/29 07:11:48;;;;;;;;;;;;;;;28.17;36.67;100527.13;5075848;28;907;-21
2023/07/29 07:14:13;;;;;;;;;;;;;;;28.24;35.74;100523.44;5087495;28;1166;-23
2023/07/29 07:16:39;;;;;;;;;;;;;;;28.22;36.77;100521.97;5084328;28;1205;-22
2023/07/29 07:19:05;;;;;;;;;;;;;;;28.27;36.50;100524.94;5086567;28;1115;-21
2023/07/29 07:21:32;;;;;;;;;;;;;;;28.20;35.80;100530.28;5091158;28;1066;-23
2023/07/29 07:23:58;;;;;;;;;;;;;;;28.10;36.76;100521.66;5080713;28;1972;-22
2023/07/29 07:26:23;;;;;;;;;;;;;;;28.20;36.64;100524.88;5092953;28;1352;-22
2023/07/29 07:28:49;;;;;;;;;;;;;;;28.31;36.22;100525.38;5099770;28;1197;-22
2023/07/29 07:31:16;;;;;;;;;;;;;;;28.22;36.85;100521.97;5099415;28;999;-21
2023/07/29 07:33:41;;;;;;;;;;;;;;;28.28;35.68;100518.47;5094371;28;1118;-21
2023/07/29 07:36:07;;;;;;;;;;;;;;;28.31;35.56;100517.25;5089262;28;891;-22
2023/07/29 07:38:32;;;;;;;;;;;;;;;28.36;35.73;100520.25;5098882;28;1011;-22
2023/07/29 07:40:58;;;;;;;;;;;;;;;28.22;36.23;100517.41;5087558;28;1326;-22
2023/07/29 07:43:24;;;;;;;;;;;;;;;28.23;36.30;100512.81;5092992;28;1910;-21
2023/07/29 07:45:49;;;;;;;;;;;;;;;28.34;35.62;100512.28;5098572;28;1367;-22
2023/07/29 07:48:16;;;;;;;;;;;;;;;28.30;36.71;100512.88;5098222;28;1340;-22
2023/07/29 07:50:42;;;;;;;;;;;;;;;28.38;36.38;100512.75;5099100;28;1161;-22
2023/07/29 07:53:08;;;;;;;;;;;;;;;28.38;35.89;100510.03;5098406;28;1070;-22
2023/07/29 07:55:33;;;;;;;;;;;;;;;28.45;36.40;100504.69;5098498;28;1111;-22
2023/07/29 07:57:59;;;;;;;;;;;;;;;28.30;35.98;100499.34;5099689;28;1090;-22
2023/07/29 08:00:24;;;;;;;;;;;;;;;28.28;36.35;100496.03;5088157;28;1197;-22
2023/07/29 08:02:50;;;;;;;;;;;;;;;28.39;36.01;100498.22;5099199;28;1897;-21
2023/07/29 08:05:15;;;;;;;;;;;;;;;28.35;36.08;100492.34;5082301;28;1186;-23
2023/07/29 08:07:41;;;;;;;;;;;;;;;27.96;37.08;100494.50;5079130;28;1063;-21
2023/07/29 08:10:07;;;;;;;;;;;;;;;28.02;37.13;100489.34;5082954;28;1046;-23
2023/07/29 08:12:32;;;;;;;;;;;;;;;28.16;36.74;100483.00;5098740;28;872;-21
2023/07/29 08:14:58;;;;;;;;;;;;;;;28.04;36.63;100487.31;5081212;28;1094;-23
2023/07/29 08:17:23;;;;;;;;;;;;;;;28.29;35.56;100481.44;5078720;28;1046;-24
2023/07/29 08:19:49;;;;;;;;;;;;;;;28.42;34.92;100481.56;5092147;28;1131;-21
2023/07/29 08:22:16;;;;;;;;;;;;;;;28.28;35.94;100479.78;5098737;28;1909;-22
2023/07/29 08:24:42;;;;;;;;;;;;;;;28.41;35.36;100471.75;5083768;28;1137;-23
2023/07/29 08:27:08;;;;;;;;;;;;;;;28.44;35.00;100468.69;5098573;28;1335;-22
2023/07/29 08:29:33;;;;;;;;;;;;;;;28.39;35.94;100470.31;5088822;28;1070;-23
2023/07/29 08:31:59;;;;;;;;;;;;;;;28.35;35.53;100459.03;5088762;28;1142;-23
2023/07/29 08:34:24;;;;;;;;;;;;;;;28.43;35.46;100463.44;5081050;28;1196;-23
2023/07/29 08:36:50;;;;;;;;;;;;;;;28.41;35.68;100458.25;5091721;28;1221;-22
2023/07/29 08:39:16;;;;;;;;;;;;;;;28.51;35.73;100451.66;5082008;28;1121;-25
2023/07/29 08:41:45;;;;;;;;;;;;;;;28.14;36.92;100449.94;5098347;28;1144;-23
2023/07/29 08:44:11;;;;;;;;;;;;;;;28.09;36.96;100438.88;5074742;28;1901;-24
2023/07/29 08:46:37;;;;;;;;;;;;;;;27.95;36.95;100438.78;5083262;28;1151;-22
2023/07/29 08:49:03;;;;;;;;;;;;;;;28.26;36.46;100435.88;5051033;28;1131;-23
2023/07/29 08:51:28;;;;;;;;;;;;;;;28.64;35.80;100440.06;5097140;28;1151;-22
2023/07/29 08:53:54;;;;;;;;;;;;;;;28.67;35.91;100435.06;5085476;28;1161;-22
2023/07/29 08:56:20;;;;;;;;;;;;;;;28.61;36.02;100435.88;5075896;28;1222;-22
2023/07/29 08:58:45;;;;;;;;;;;;;;;28.58;35.94;100430.84;5067680;28;1552;-22
2023/07/29 09:01:11;;;;;;;;;;;;;;;28.66;35.78;100427.97;5091298;28;1063;-23
2023/07/29 09:03:37;;;;;;;;;;;;;;;28.69;35.73;100421.34;5079974;28;1894;-23
2023/07/29 09:06:02;;;;;;;;;;;;;;;28.69;36.06;100418.63;5091517;28;1086;-23
2023/07/29 09:08:28;;;;;;;;;;;;;;;28.48;37.15;100421.25;5060277;28;1093;-22
2023/07/29 09:10:54;;;;;;;;;;;;;;;28.47;36.80;100416.88;5100243;28;1071;-26
2023/07/29 09:13:20;;;;;;;;;;;;;;;28.74;35.75;100410.75;5084840;28;904;-26
2023/07/29 09:15:46;;;;;;;;;;;;;;;28.71;36.50;100405.75;5068245;28;1173;-25
2023/07/29 09:18:18;;;;;;;;;;;;;;;28.64;36.31;100410.28;5097307;28;1176;-23
2023/07/29 09:20:45;;;;;;;;;;;;;;;28.53;36.01;100398.19;5077476;28;1143;-24
2023/07/29 09:23:11;;;;;;;;;;;;;;;28.69;35.02;100400.53;5077482;28;1906;-22
2023/07/29 09:25:37;;;;;;;;;;;;;;;28.68;35.88;100403.41;5077296;28;879;-24
2023/07/29 09:28:07;;;;;;;;;;;;;;;28.83;35.73;100404.09;5077416;28;1082;-23
2023/07/29 09:30:32;;;;;;;;;;;;;;;28.87;35.28;100401.84;5085433;28;1381;-23
2023/07/29 09:32:58;;;;;;;;;;;;;;;28.86;35.27;100400.19;5083306;28;1130;-23
2023/07/29 09:35:24;;;;;;;;;;;;;;;28.56;35.39;100401.28;5085062;28;1158;-24
2023/07/29 09:37:51;;;;;;;;;;;;;;;28.42;35.14;100400.41;5077233;28;1160;-23
2023/07/29 09:40:16;;;;;;;;;;;;;;;28.24;36.23;100396.31;5078337;28;1154;-24
2023/07/29 09:42:49;;;;;;;;;;;;;;;28.73;34.83;100400.94;5076611;28;1898;-23
2023/07/29 09:45:21;;;;;;;;;;;;;;;28.69;35.81;100402.41;5078886;28;1221;-22
2023/07/29 09:47:46;;;;;;;;;;;;;;;28.63;35.71;100392.38;5083038;28;1051;-22
2023/07/29 09:50:12;;;;;;;;;;;;;;;28.81;34.98;100389.13;5083855;28;1114;-22
2023/07/29 09:52:37;;;;;;;;;;;;;;;28.77;34.82;100388.69;5083364;28;972;-24
2023/07/29 09:55:03;;;;;;;;;;;;;;;28.77;34.67;100382.44;5093145;28;1212;-23
2023/07/29 09:57:29;;;;;;;;;;;;;;;28.89;34.72;100382.69;5096276;28;1260;-22
2023/07/29 09:59:55;;;;;;;;;;;;;;;28.94;34.20;100382.91;5075528;28;1193;-22
2023/07/29 10:02:20;;;;;;;;;;;;;;;28.84;34.52;100386.81;5091924;28;1901;-22
2023/07/29 10:04:46;;;;;;;;;;;;;;;28.93;34.54;100379.34;5072842;28;1134;-23
2023/07/29 10:07:12;;;;;;;;;;;;;;;28.70;35.67;100385.94;5071813;28;1060;-23
2023/07/29 10:09:38;;;;;;;;;;;;;;;28.52;36.97;100383.81;5079204;28;1064;-22
2023/07/29 10:12:04;;;;;;;;;;;;;;;28.81;36.11;100375.59;5089825;28;1050;-23
2023/07/29 10:14:30;;;;;;;;;;;;;;;28.65;36.21;100376.75;5058819;28;1019;-23
2023/07/29 10:16:55;;;;;;;;;;;;;;;28.95;35.22;100373.72;5089765;28;1097;-23
2023/07/29 10:19:22;;;;;;;;;;;;;;;28.69;36.29;100375.34;5076021;28;1224;-22
2023/07/29 10:21:47;;;;;;;;;;;;;;;28.87;35.81;100373.91;5058409;28;1047;-23
2023/07/29 10:24:15;;;;;;;;;;;;;;;28.83;36.02;100377.03;5077895;28;1978;-25
2023/07/29 10:26:41;;;;;;;;;;;;;;;28.93;35.07;100378.50;5072773;28;1031;-23
2023/07/29 10:29:08;;;;;;;;;;;;;;;28.82;35.61;100371.81;5065061;28;1456;-22
2023/07/29 10:31:34;;;;;;;;;;;;;;;28.83;35.32;100374.31;5090967;28;1201;-23
2023/07/29 10:33:59;;;;;;;;;;;;;;;28.60;36.28;100372.81;5096132;28;1558;-24
2023/07/29 10:36:25;;;;;;;;;;;;;;;28.96;35.83;100383.53;5091636;28;1162;-24
2023/07/29 10:38:50;;;;;;;;;;;;;;;28.70;36.08;100380.53;5082141;28;1154;-24
2023/07/29 10:41:16;;;;;;;;;;;;;;;28.69;36.37;100375.34;5065480;28;1167;-23
2023/07/29 10:43:41;;;;;;;;;;;;;;;28.91;36.11;100378.72;5082555;28;1910;-25
2023/07/29 10:46:20;;;;;;;;;;;;;;;28.64;37.19;100370.53;5088229;28;1248;-22
2023/07/29 10:48:55;;;;;;;;;;;;;;;28.63;36.91;100365.31;5090219;28;1158;-22
2023/07/29 10:51:26;;;;;;;;;;;;;;;28.88;37.05;100367.47;5085548;28;1107;-21
2023/07/29 10:53:52;;;;;;;;;;;;;;;28.73;37.34;100363.03;5081877;28;1271;-22
2023/07/29 10:56:32;;;;;;;;;;;;;;;28.79;37.43;100361.41;5080254;28;1197;-22
2023/07/29 10:59:18;;;;;;;;;;;;;;;28.90;37.16;100373.50;5088967;28;1121;-23
2023/07/29 11:01:50;;;;;;;;;;;;;;;28.67;37.16;100371.97;5034929;28;1184;-25
2023/07/29 11:04:19;;;;;;;;;;;;;;;28.95;37.13;100368.31;5085042;28;1902;-23
2023/07/29 11:07:03;;;;;;;;;;;;;;;28.76;37.23;100369.94;5076960;28;1135;-23
2023/07/29 11:09:47;;;;;;;;;;;;;;;28.64;38.74;100375.09;5075439;28;1043;-24
2023/07/29 11:12:31;;;;;;;;;;;;;;;28.69;38.35;100380.75;5076086;28;1117;-22
2023/07/29 11:14:57;;;;;;;;;;;;;;;28.75;38.03;100381.78;5075845;28;1040;-24
2023/07/29 11:17:22;;;;;;;;;;;;;;;28.87;37.40;100377.47;5075803;28;1055;-23
2023/07/29 11:19:48;;;;;;;;;;;;;;;28.92;38.08;100374.97;5076818;28;1122;-23
2023/07/29 11:22:13;;;;;;;;;;;;;;;29.03;37.52;100378.97;5067759;28;1969;-22
2023/07/29 11:24:41;;;;;;;;;;;;;;;28.93;37.82;100375.78;5095078;28;1062;-22
2023/07/29 11:27:11;;;;;;;;;;;;;;;28.75;38.34;100377.22;5075758;28;1170;-22
2023/07/29 11:29:36;;;;;;;;;;;;;;;28.65;38.62;100374.91;5092560;28;1090;-23
2023/07/29 11:32:02;;;;;;;;;;;;;;;28.87;38.58;100373.91;5075573;28;1209;-23
2023/07/29 11:34:34;;;;;;;;;;;;;;;28.94;38.07;100367.50;5079131;28;1166;-22
2023/07/29 11:37:00;;;;;;;;;;;;;;;29.07;37.83;100371.28;5091051;28;1151;-26
2023/07/29 11:39:25;;;;;;;;;;;;;;;28.26;38.69;100255.47;5092485;28;1142;-22
2023/07/29 11:41:51;;;;;;;;;;;;;;;28.77;39.25;100369.75;5089495;28;1126;-22
2023/07/29 11:44:17;;;;;;;;;;;;;;;28.80;39.21;100360.34;5095160;28;1918;-21
2023/07/29 11:46:43;;;;;;;;;;;;;;;28.64;39.14;100370.53;5091954;28;1198;-23
2023/07/29 11:49:08;;;;;;;;;;;;;;;29.00;38.89;100367.72;5095410;28;1387;-22
2023/07/29 11:51:34;;;;;;;;;;;;;;;29.04;38.93;100367.13;5092960;28;1145;-23
2023/07/29 11:53:59;;;;;;;;;;;;;;;28.82;39.18;100363.72;5095512;28;1292;-22
2023/07/29 11:56:25;;;;;;;;;;;;;;;28.73;39.04;100371.16;5077986;28;1320;-23
2023/07/29 11:58:51;;;;;;;;;;;;;;;28.80;38.46;100361.22;5063819;28;1137;-22
2023/07/29 12:01:16;;;;;;;;;;;;;;;28.82;38.77;100351.00;5080773;28;1130;-22
2023/07/29 12:03:42;;;;;;;;;;;;;;;28.69;39.52;100357.22;5081450;28;1984;-22
2023/07/29 12:06:07;;;;;;;;;;;;;;;28.67;39.67;100356.59;5068462;28;1194;-22
2023/07/29 12:08:33;;;;;;;;;;;;;;;28.83;38.80;100357.25;5098915;28;1276;-24
2023/07/29 12:10:59;;;;;;;;;;;;;;;28.91;38.71;100356.25;5081353;28;1294;-22
2023/07/29 12:13:25;;;;;;;;;;;;;;;28.75;39.74;100354.72;5084764;28;1456;-23
2023/07/29 12:15:50;;;;;;;;;;;;;;;28.79;38.96;100359.56;5085879;28;1137;-25
2023/07/29 12:18:16;;;;;;;;;;;;;;;28.84;38.90;100367.06;5085349;28;1060;-23
2023/07/29 12:20:41;;;;;;;;;;;;;;;28.76;39.02;100365.34;5085761;28;1142;-25
2023/07/29 12:23:08;;;;;;;;;;;;;;;28.89;38.99;100363.72;5098448;28;1971;-23
2023/07/29 12:25:33;;;;;;;;;;;;;;;28.84;39.48;100361.63;5085441;28;1193;-23
2023/07/29 12:28:05;;;;;;;;;;;;;;;28.65;38.89;100355.94;5080398;28;1232;-25
2023/07/29 12:30:31;;;;;;;;;;;;;;;28.54;39.26;100360.09;5098296;28;1053;-22
2023/07/29 12:32:57;;;;;;;;;;;;;;;28.90;38.03;100351.84;5078465;28;967;-23
2023/07/29 12:35:22;;;;;;;;;;;;;;;28.56;39.34;100355.28;5079512;28;1114;-23
2023/07/29 12:37:57;;;;;;;;;;;;;;;28.56;39.54;100362.59;5091401;28;1185;-23
2023/07/29 12:40:23;;;;;;;;;;;;;;;28.82;38.58;100356.44;5081424;28;1095;-22
2023/07/29 12:42:50;;;;;;;;;;;;;;;28.65;39.26;100355.94;5077806;28;1910;-23